Time;durP1;ratioP1;P1;durP2;ratioP2;P2;SDS_P1;SDS_P2;PMS_P1;PMS_P2;Temp;Humidity;BMP_temperature;BMP_pressure;BME280_temperature;BME280_humidity;BME280_pressure;Samples;Min_cycle;Max_cycle;Signal;HPM_P1;HPM_P2
2023/11/23 00:00:38;;;;;;;10.57;4.95;;;;;;;;;;5008388;28;20254;-80
2023/11/23 00:03:05;;;;;;;9.60;5.60;;;;;;;;;;5012748;28;20238;-80
2023/11/23 00:05:31;;;;;;;8.95;5.40;;;;;;;;;;5017331;28;20274;-81
2023/11/23 00:07:58;;;;;;;8.90;5.47;;;;;;;;;;5008461;28;20225;-82
2023/11/23 00:10:24;;;;;;;8.73;6.05;;;;;;;;;;5005981;28;20244;-81
2023/11/23 00:12:50;;;;;;;9.48;6.25;;;;;;;;;;5010886;28;20267;-80
2023/11/23 00:15:16;;;;;;;8.90;6.80;;;;;;;;;;5006986;28;20190;-80
2023/11/23 00:17:42;;;;;;;9.77;7.05;;;;;;;;;;5016658;28;20836;-80
2023/11/23 00:20:11;;;;;;;12.53;7.17;;;;;;;;;;5002787;28;20237;-81
2023/11/23 00:22:37;;;;;;;18.40;6.90;;;;;;;;;;5002925;28;20430;-80
2023/11/23 00:25:04;;;;;;;8.10;6.30;;;;;;;;;;5008094;28;20229;-81
2023/11/23 00:27:30;;;;;;;13.10;7.30;;;;;;;;;;5004139;28;20238;-80
2023/11/23 00:29:56;;;;;;;9.43;6.60;;;;;;;;;;5009132;28;20548;-81
2023/11/23 00:32:22;;;;;;;9.93;6.53;;;;;;;;;;5009025;28;20433;-81
2023/11/23 00:34:50;;;;;;;14.10;7.77;;;;;;;;;;5017500;28;20427;-80
2023/11/23 00:37:16;;;;;;;12.20;7.05;;;;;;;;;;5007668;28;20954;-80
2023/11/23 00:39:42;;;;;;;9.82;6.38;;;;;;;;;;5004678;28;20218;-80
2023/11/23 00:42:08;;;;;;;11.02;6.90;;;;;;;;;;5005575;28;20196;-81
2023/11/23 00:44:34;;;;;;;12.40;6.67;;;;;;;;;;5012950;28;20190;-81
2023/11/23 00:47:00;;;;;;;9.73;6.40;;;;;;;;;;5012554;28;20496;-80
2023/11/23 00:49:27;;;;;;;8.77;6.25;;;;;;;;;;5014670;28;20265;-81
2023/11/23 00:51:53;;;;;;;13.52;5.90;;;;;;;;;;5005249;28;20592;-80
2023/11/23 00:54:20;;;;;;;11.68;5.95;;;;;;;;;;5009983;28;20224;-80
2023/11/23 00:56:46;;;;;;;12.38;5.90;;;;;;;;;;5013407;28;20626;-81
2023/11/23 00:59:12;;;;;;;9.27;6.68;;;;;;;;;;5007462;28;20199;-80
2023/11/23 01:01:39;;;;;;;14.77;7.88;;;;;;;;;;5012572;28;20231;-80
2023/11/23 01:04:05;;;;;;;13.63;6.68;;;;;;;;;;5014578;28;20190;-80
2023/11/23 01:06:33;;;;;;;10.93;7.25;;;;;;;;;;5007501;28;20251;-80
2023/11/23 01:08:59;;;;;;;12.10;6.13;;;;;;;;;;5018179;28;20182;-81
2023/11/23 01:11:25;;;;;;;14.50;9.10;;;;;;;;;;5009217;28;20190;-81
2023/11/23 01:13:51;;;;;;;11.82;7.60;;;;;;;;;;5017767;28;20485;-80
2023/11/23 01:16:17;;;;;;;13.18;8.07;;;;;;;;;;5015695;28;20228;-80
2023/11/23 01:18:43;;;;;;;13.40;7.22;;;;;;;;;;5017615;28;20215;-80
2023/11/23 01:21:10;;;;;;;17.33;8.85;;;;;;;;;;5006965;28;20185;-80
2023/11/23 01:23:36;;;;;;;11.82;7.93;;;;;;;;;;5015350;28;20202;-80
2023/11/23 01:26:02;;;;;;;13.63;8.10;;;;;;;;;;5020063;28;20301;-80
2023/11/23 01:28:28;;;;;;;17.35;6.97;;;;;;;;;;5013087;28;20501;-80
2023/11/23 01:30:54;;;;;;;12.20;8.30;;;;;;;;;;5009636;28;20747;-80
2023/11/23 01:33:19;;;;;;;14.37;7.93;;;;;;;;;;5013453;28;20797;-80
2023/11/23 01:35:45;;;;;;;12.10;7.40;;;;;;;;;;5021657;28;20447;-80
2023/11/23 01:38:11;;;;;;;12.20;8.13;;;;;;;;;;5009990;28;20426;-80
2023/11/23 01:40:38;;;;;;;20.00;9.27;;;;;;;;;;5009433;28;20575;-80
2023/11/23 01:43:10;;;;;;;9.98;7.70;;;;;;;;;;5010619;28;20425;-80
2023/11/23 01:45:37;;;;;;;13.85;8.13;;;;;;;;;;5018699;28;20184;-79
2023/11/23 01:48:03;;;;;;;11.57;8.85;;;;;;;;;;5005583;28;20184;-79
2023/11/23 01:50:31;;;;;;;13.35;9.00;;;;;;;;;;5013926;28;20196;-79
2023/11/23 01:52:57;;;;;;;15.10;9.38;;;;;;;;;;5018132;28;20266;-80
2023/11/23 01:55:23;;;;;;;15.85;9.35;;;;;;;;;;5020531;28;20683;-79
2023/11/23 01:57:52;;;;;;;14.70;9.30;;;;;;;;;;5013198;28;20185;-79
2023/11/23 02:00:18;;;;;;;14.88;9.68;;;;;;;;;;5016242;28;20215;-79
2023/11/23 02:02:44;;;;;;;12.23;8.68;;;;;;;;;;5015024;28;20240;-79
2023/11/23 02:05:10;;;;;;;17.48;9.35;;;;;;;;;;5017683;28;20179;-79
2023/11/23 02:07:36;;;;;;;13.15;9.65;;;;;;;;;;5009532;28;20185;-79
2023/11/23 02:10:06;;;;;;;18.70;9.70;;;;;;;;;;5023251;28;20210;-79
2023/11/23 02:12:32;;;;;;;15.90;9.35;;;;;;;;;;5016207;28;20803;-78
2023/11/23 02:14:59;;;;;;;18.73;9.20;;;;;;;;;;5013836;28;20191;-79
2023/11/23 02:17:25;;;;;;;19.10;9.40;;;;;;;;;;5015529;28;20196;-79
2023/11/23 02:19:51;;;;;;;18.53;9.30;;;;;;;;;;5012788;28;20212;-78
2023/11/23 02:22:17;;;;;;;13.32;8.98;;;;;;;;;;5017847;28;20455;-79
2023/11/23 02:24:44;;;;;;;15.68;10.23;;;;;;;;;;5013012;28;20192;-79
2023/11/23 02:27:10;;;;;;;22.63;10.20;;;;;;;;;;5011762;28;20236;-79
2023/11/23 02:29:37;;;;;;;15.48;10.13;;;;;;;;;;5009916;28;20310;-78
2023/11/23 02:32:06;;;;;;;14.65;9.88;;;;;;;;;;5013962;28;20179;-79
2023/11/23 02:34:33;;;;;;;14.32;9.73;;;;;;;;;;5014726;28;20185;-78
2023/11/23 02:36:59;;;;;;;20.50;9.98;;;;;;;;;;5010638;28;20196;-79
2023/11/23 02:39:25;;;;;;;18.13;11.40;;;;;;;;;;5004437;28;20204;-79
2023/11/23 02:41:51;;;;;;;16.90;10.73;;;;;;;;;;5012937;28;20477;-78
2023/11/23 02:44:17;;;;;;;19.05;10.93;;;;;;;;;;5010225;28;20463;-79
2023/11/23 02:46:43;;;;;;;14.33;8.60;;;;;;;;;;5005228;28;20542;-79
2023/11/23 02:49:09;;;;;;;18.35;9.65;;;;;;;;;;5012068;28;20426;-79
2023/11/23 02:51:35;;;;;;;14.60;9.33;;;;;;;;;;5017206;28;20192;-78
2023/11/23 02:54:01;;;;;;;16.95;9.05;;;;;;;;;;5012082;28;20464;-78
2023/11/23 02:56:27;;;;;;;14.75;9.73;;;;;;;;;;5009597;28;20200;-80
2023/11/23 02:58:53;;;;;;;16.80;10.00;;;;;;;;;;5005669;28;20252;-78
2023/11/23 03:01:21;;;;;;;19.52;11.57;;;;;;;;;;5010036;28;20811;-78
2023/11/23 03:03:47;;;;;;;18.10;11.32;;;;;;;;;;5012736;28;20528;-78
2023/11/23 03:06:13;;;;;;;16.33;10.40;;;;;;;;;;5014028;28;20182;-78
2023/11/23 03:08:39;;;;;;;13.57;9.70;;;;;;;;;;5010711;28;20187;-79
2023/11/23 03:11:05;;;;;;;15.15;9.95;;;;;;;;;;5014247;28;20179;-79
2023/11/23 03:13:31;;;;;;;16.23;10.88;;;;;;;;;;5004684;28;20664;-79
2023/11/23 03:15:57;;;;;;;21.33;10.67;;;;;;;;;;5009774;28;20200;-78
2023/11/23 03:18:23;;;;;;;14.23;9.73;;;;;;;;;;5013724;28;20647;-79
2023/11/23 03:20:49;;;;;;;19.38;10.50;;;;;;;;;;5015406;28;20634;-79
2023/11/23 03:23:15;;;;;;;18.20;10.20;;;;;;;;;;5005226;28;20661;-79
2023/11/23 03:25:41;;;;;;;16.27;9.30;;;;;;;;;;5010726;28;20432;-79
2023/11/23 03:28:07;;;;;;;14.88;10.60;;;;;;;;;;5010086;28;20505;-80
2023/11/23 03:30:35;;;;;;;19.00;10.07;;;;;;;;;;5007551;28;20210;-79
2023/11/23 03:33:01;;;;;;;17.27;10.50;;;;;;;;;;5006920;28;20170;-79
2023/11/23 03:35:27;;;;;;;14.02;9.38;;;;;;;;;;5005540;28;20191;-79
2023/11/23 03:37:53;;;;;;;14.23;10.20;;;;;;;;;;5008240;28;20197;-78
2023/11/23 03:40:19;;;;;;;16.17;9.90;;;;;;;;;;5012146;28;20564;-78
2023/11/23 03:42:45;;;;;;;11.37;9.07;;;;;;;;;;5017021;28;20468;-79
2023/11/23 03:45:11;;;;;;;19.65;10.43;;;;;;;;;;5007547;28;20429;-79
2023/11/23 03:47:37;;;;;;;13.03;8.67;;;;;;;;;;5013587;28;20548;-79
2023/11/23 03:50:03;;;;;;;14.55;10.13;;;;;;;;;;5015225;28;20553;-80
2023/11/23 03:52:29;;;;;;;16.73;10.65;;;;;;;;;;5015013;28;20184;-79
2023/11/23 03:54:55;;;;;;;14.30;8.97;;;;;;;;;;5007120;28;20325;-79
2023/11/23 03:57:21;;;;;;;14.67;9.67;;;;;;;;;;5010070;28;20426;-79
2023/11/23 03:59:47;;;;;;;14.90;9.83;;;;;;;;;;5006219;28;20835;-79
2023/11/23 04:02:14;;;;;;;17.02;11.18;;;;;;;;;;5007158;28;20448;-79
2023/11/23 04:04:40;;;;;;;14.50;9.93;;;;;;;;;;5012982;28;20193;-78
2023/11/23 04:07:06;;;;;;;15.50;10.80;;;;;;;;;;5012123;28;20217;-79
2023/11/23 04:09:32;;;;;;;19.40;11.53;;;;;;;;;;5007357;28;20199;-79
2023/11/23 04:11:58;;;;;;;17.13;10.03;;;;;;;;;;5014376;28;20422;-79
2023/11/23 04:14:25;;;;;;;18.10;11.57;;;;;;;;;;5011311;28;20434;-79
2023/11/23 04:16:52;;;;;;;15.80;10.63;;;;;;;;;;5011161;28;20448;-79
2023/11/23 04:19:18;;;;;;;24.48;12.15;;;;;;;;;;5014349;28;20300;-79
2023/11/23 04:21:44;;;;;;;18.23;11.07;;;;;;;;;;5000690;28;20237;-79
2023/11/23 04:24:10;;;;;;;19.37;11.93;;;;;;;;;;5013512;28;20186;-80
2023/11/23 04:26:36;;;;;;;24.07;12.67;;;;;;;;;;5010071;28;20525;-79
2023/11/23 04:29:02;;;;;;;21.00;11.03;;;;;;;;;;5014275;28;20433;-79
2023/11/23 04:31:28;;;;;;;18.40;12.70;;;;;;;;;;5010174;28;20834;-79
2023/11/23 04:33:54;;;;;;;17.33;12.20;;;;;;;;;;5010534;28;20518;-79
2023/11/23 04:36:21;;;;;;;17.47;11.90;;;;;;;;;;5015443;28;20419;-79
2023/11/23 04:38:47;;;;;;;21.73;11.40;;;;;;;;;;5018068;28;20467;-78
2023/11/23 04:41:13;;;;;;;15.50;12.10;;;;;;;;;;5010501;28;20193;-80
2023/11/23 04:43:39;;;;;;;19.90;12.13;;;;;;;;;;5016953;28;20473;-79
2023/11/23 04:46:05;;;;;;;16.05;12.15;;;;;;;;;;5009058;28;20447;-79
2023/11/23 04:48:32;;;;;;;25.38;12.65;;;;;;;;;;5014052;28;20277;-79
2023/11/23 04:50:58;;;;;;;18.23;12.70;;;;;;;;;;5015842;28;20187;-79
2023/11/23 04:53:24;;;;;;;22.85;12.90;;;;;;;;;;5011700;28;20545;-79
2023/11/23 04:55:51;;;;;;;17.87;12.10;;;;;;;;;;5012704;28;20183;-79
2023/11/23 04:58:17;;;;;;;17.50;14.15;;;;;;;;;;5018210;28;20451;-79
2023/11/23 05:00:43;;;;;;;20.13;11.82;;;;;;;;;;5013449;28;20217;-79
2023/11/23 05:03:09;;;;;;;19.60;12.87;;;;;;;;;;5010921;28;20284;-79
2023/11/23 05:05:35;;;;;;;19.83;13.57;;;;;;;;;;5006582;28;20425;-79
2023/11/23 05:08:01;;;;;;;27.00;13.43;;;;;;;;;;5013730;28;20418;-79
2023/11/23 05:10:27;;;;;;;22.27;13.63;;;;;;;;;;5014564;28;20421;-79
2023/11/23 05:12:53;;;;;;;19.20;13.20;;;;;;;;;;5013182;28;20444;-79
2023/11/23 05:15:19;;;;;;;26.43;13.17;;;;;;;;;;5014574;28;20628;-80
2023/11/23 05:17:45;;;;;;;25.83;12.93;;;;;;;;;;5011999;28;20422;-79
2023/11/23 05:20:12;;;;;;;19.10;12.97;;;;;;;;;;5018928;28;20203;-79
2023/11/23 05:22:38;;;;;;;20.55;12.32;;;;;;;;;;5005661;28;20425;-79
2023/11/23 05:25:05;;;;;;;19.50;12.40;;;;;;;;;;5015319;28;20177;-79
2023/11/23 05:27:31;;;;;;;23.42;13.05;;;;;;;;;;5028246;28;20495;-80
2023/11/23 05:29:57;;;;;;;19.20;12.35;;;;;;;;;;5012538;28;20183;-79
2023/11/23 05:32:23;;;;;;;17.83;12.53;;;;;;;;;;5018838;28;20193;-80
2023/11/23 05:34:49;;;;;;;18.40;12.43;;;;;;;;;;5013956;28;20475;-79
2023/11/23 05:37:15;;;;;;;17.52;12.68;;;;;;;;;;5018484;28;20767;-79
2023/11/23 05:39:42;;;;;;;21.33;14.13;;;;;;;;;;5006470;28;20203;-79
2023/11/23 05:42:08;;;;;;;19.20;12.55;;;;;;;;;;5021117;28;20791;-79
2023/11/23 05:44:34;;;;;;;19.48;12.05;;;;;;;;;;5017858;28;20183;-80
2023/11/23 05:47:00;;;;;;;22.45;13.68;;;;;;;;;;5008762;28;20215;-79
2023/11/23 05:49:27;;;;;;;18.50;13.93;;;;;;;;;;5012597;28;20727;-80
2023/11/23 05:51:53;;;;;;;19.92;12.75;;;;;;;;;;5012769;28;20198;-79
2023/11/23 05:54:19;;;;;;;21.50;13.40;;;;;;;;;;5010365;28;20635;-80
2023/11/23 05:56:46;;;;;;;22.98;14.20;;;;;;;;;;5012798;28;20429;-79
2023/11/23 05:59:12;;;;;;;20.25;13.13;;;;;;;;;;5019871;28;20201;-79
2023/11/23 06:01:38;;;;;;;18.80;13.77;;;;;;;;;;5011122;28;20184;-79
2023/11/23 06:04:04;;;;;;;19.30;13.93;;;;;;;;;;5004408;28;20426;-79
2023/11/23 06:06:30;;;;;;;19.05;14.65;;;;;;;;;;5024978;28;20194;-80
2023/11/23 06:08:56;;;;;;;19.57;12.57;;;;;;;;;;5008952;28;20182;-79
2023/11/23 06:11:22;;;;;;;19.00;13.63;;;;;;;;;;5012879;28;20430;-80
2023/11/23 06:13:49;;;;;;;18.88;13.20;;;;;;;;;;5010008;28;20246;-79
2023/11/23 06:16:15;;;;;;;20.10;13.98;;;;;;;;;;5012428;28;20179;-81
2023/11/23 06:18:41;;;;;;;20.13;14.02;;;;;;;;;;5014237;28;20186;-79
2023/11/23 06:21:08;;;;;;;22.15;14.60;;;;;;;;;;5008361;28;20677;-78
2023/11/23 06:23:34;;;;;;;24.65;15.30;;;;;;;;;;5009707;28;20182;-79
2023/11/23 06:26:00;;;;;;;22.77;15.55;;;;;;;;;;5008435;28;20180;-79
2023/11/23 06:28:26;;;;;;;23.70;14.77;;;;;;;;;;5008105;28;20241;-79
2023/11/23 06:30:52;;;;;;;21.60;14.03;;;;;;;;;;5011143;28;20189;-80
2023/11/23 06:33:18;;;;;;;19.53;13.80;;;;;;;;;;5013329;28;20840;-79
2023/11/23 06:35:44;;;;;;;22.67;15.90;;;;;;;;;;5014710;28;20497;-79
2023/11/23 06:38:10;;;;;;;23.15;15.15;;;;;;;;;;5010271;28;20515;-80
2023/11/23 06:40:36;;;;;;;19.60;14.27;;;;;;;;;;5003223;28;20246;-79
2023/11/23 06:43:02;;;;;;;21.80;14.90;;;;;;;;;;5011816;28;20457;-80
2023/11/23 06:45:28;;;;;;;19.40;14.43;;;;;;;;;;5006453;28;20176;-81
2023/11/23 06:47:54;;;;;;;19.85;14.20;;;;;;;;;;5009653;28;20264;-79
2023/11/23 06:50:20;;;;;;;20.57;14.80;;;;;;;;;;5016081;28;20228;-81
2023/11/23 06:52:46;;;;;;;19.48;13.63;;;;;;;;;;5015859;28;20514;-81
2023/11/23 06:55:14;;;;;;;22.30;14.48;;;;;;;;;;5015325;28;20214;-80
2023/11/23 06:57:43;;;;;;;20.92;14.45;;;;;;;;;;5007708;28;20196;-80
2023/11/23 07:00:16;;;;;;;21.83;15.20;;;;;;;;;;5012011;28;20202;-79
2023/11/23 07:02:43;;;;;;;24.10;16.42;;;;;;;;;;5008950;28;20631;-79
2023/11/23 07:05:10;;;;;;;26.57;14.50;;;;;;;;;;5010569;28;20190;-79
2023/11/23 07:07:37;;;;;;;18.83;14.30;;;;;;;;;;5015613;28;20417;-80
2023/11/23 07:10:03;;;;;;;24.02;15.85;;;;;;;;;;5012590;28;20266;-80
2023/11/23 07:12:29;;;;;;;28.90;16.48;;;;;;;;;;5014843;28;20214;-81
2023/11/23 07:14:55;;;;;;;28.63;14.70;;;;;;;;;;5009215;28;20190;-80
2023/11/23 07:17:20;;;;;;;23.47;14.73;;;;;;;;;;5020260;28;20410;-80
2023/11/23 07:19:46;;;;;;;25.63;17.23;;;;;;;;;;5013888;28;20530;-80
2023/11/23 07:22:12;;;;;;;23.30;14.93;;;;;;;;;;5013135;28;20430;-79
2023/11/23 07:24:38;;;;;;;22.33;15.93;;;;;;;;;;5011600;28;20430;-80
2023/11/23 07:27:04;;;;;;;23.42;14.25;;;;;;;;;;5006725;28;20501;-80
2023/11/23 07:29:31;;;;;;;21.83;14.97;;;;;;;;;;5016217;28;20240;-80
2023/11/23 07:31:57;;;;;;;20.58;16.13;;;;;;;;;;5009166;28;20829;-80
2023/11/23 07:34:25;;;;;;;21.97;14.47;;;;;;;;;;5006513;28;20192;-80
2023/11/23 07:36:50;;;;;;;25.00;15.15;;;;;;;;;;5016731;28;20420;-80
2023/11/23 07:39:16;;;;;;;20.10;14.20;;;;;;;;;;5018216;28;20206;-80
2023/11/23 07:41:43;;;;;;;28.30;14.55;;;;;;;;;;5006616;28;20433;-80
2023/11/23 07:44:09;;;;;;;23.00;15.30;;;;;;;;;;5008761;28;20185;-80
2023/11/23 07:46:35;;;;;;;23.60;14.13;;;;;;;;;;5012754;28;20191;-80
2023/11/23 07:49:01;;;;;;;23.17;15.30;;;;;;;;;;5005088;28;20421;-83
2023/11/23 07:51:27;;;;;;;21.47;14.30;;;;;;;;;;5014693;28;20502;-80
2023/11/23 07:53:53;;;;;;;21.90;15.17;;;;;;;;;;5008875;28;20408;-81
2023/11/23 07:56:20;;;;;;;21.37;14.37;;;;;;;;;;5012584;28;20838;-81
2023/11/23 07:58:46;;;;;;;25.98;15.68;;;;;;;;;;5005742;28;20804;-80
2023/11/23 08:01:13;;;;;;;22.35;13.77;;;;;;;;;;5001792;28;20184;-80
2023/11/23 08:03:39;;;;;;;20.15;14.70;;;;;;;;;;5005372;28;20189;-81
2023/11/23 08:06:05;;;;;;;19.37;14.17;;;;;;;;;;5007472;28;20611;-80
2023/11/23 08:08:31;;;;;;;23.27;14.75;;;;;;;;;;5007439;28;20919;-80
2023/11/23 08:10:57;;;;;;;17.97;12.43;;;;;;;;;;5013987;28;20189;-80
2023/11/23 08:13:23;;;;;;;23.83;15.17;;;;;;;;;;5010682;28;20493;-81
2023/11/23 08:15:49;;;;;;;22.25;15.00;;;;;;;;;;5004963;28;20521;-80
2023/11/23 08:18:15;;;;;;;21.20;14.90;;;;;;;;;;5009000;28;20226;-81
2023/11/23 08:20:41;;;;;;;20.13;13.93;;;;;;;;;;5015931;28;20477;-80
2023/11/23 08:23:08;;;;;;;20.45;13.15;;;;;;;;;;5009184;28;20786;-80
2023/11/23 08:25:34;;;;;;;24.80;14.02;;;;;;;;;;5010387;28;20176;-80
2023/11/23 08:28:02;;;;;;;21.55;13.65;;;;;;;;;;5017923;28;20254;-80
2023/11/23 08:30:28;;;;;;;21.20;14.02;;;;;;;;;;5015865;28;20211;-81
2023/11/23 08:32:55;;;;;;;24.85;14.55;;;;;;;;;;5012730;28;20185;-80
2023/11/23 08:35:21;;;;;;;22.77;13.13;;;;;;;;;;5005664;28;20172;-81
2023/11/23 08:37:48;;;;;;;29.87;14.73;;;;;;;;;;5014895;28;20194;-81
2023/11/23 08:40:14;;;;;;;20.52;13.40;;;;;;;;;;5009263;28;20469;-79
2023/11/23 08:42:40;;;;;;;18.97;13.47;;;;;;;;;;5012272;28;20199;-80
2023/11/23 08:45:07;;;;;;;16.15;12.23;;;;;;;;;;5013616;28;20429;-80
2023/11/23 08:47:33;;;;;;;21.88;12.88;;;;;;;;;;5010129;28;20190;-80
2023/11/23 08:49:59;;;;;;;17.92;13.45;;;;;;;;;;5008665;28;20214;-80
2023/11/23 08:52:25;;;;;;;16.35;12.52;;;;;;;;;;5006221;28;20209;-79
2023/11/23 08:54:51;;;;;;;20.48;12.88;;;;;;;;;;5010074;28;20178;-79
2023/11/23 08:57:17;;;;;;;19.40;13.70;;;;;;;;;;5015135;28;20194;-80
2023/11/23 08:59:43;;;;;;;17.53;14.40;;;;;;;;;;5013468;28;20460;-80
2023/11/23 09:02:09;;;;;;;23.40;13.95;;;;;;;;;;5011725;28;20429;-80
2023/11/23 09:04:36;;;;;;;18.70;13.80;;;;;;;;;;5008145;28;20187;-81
2023/11/23 09:07:02;;;;;;;16.80;12.20;;;;;;;;;;5024144;28;20413;-80
2023/11/23 09:09:29;;;;;;;19.58;14.10;;;;;;;;;;5011469;28;20194;-81
2023/11/23 09:11:55;;;;;;;19.60;15.25;;;;;;;;;;5010851;28;20186;-80
2023/11/23 09:14:22;;;;;;;26.52;13.73;;;;;;;;;;4999461;28;20207;-81
2023/11/23 09:16:48;;;;;;;18.63;12.60;;;;;;;;;;5010369;28;20188;-80
2023/11/23 09:19:14;;;;;;;18.97;13.33;;;;;;;;;;5009558;28;20225;-80
2023/11/23 09:21:40;;;;;;;21.90;14.43;;;;;;;;;;5012526;28;20758;-80
2023/11/23 09:24:06;;;;;;;15.90;12.27;;;;;;;;;;5015246;28;20612;-80
2023/11/23 09:26:32;;;;;;;19.23;13.00;;;;;;;;;;5007854;28;20442;-81
2023/11/23 09:28:59;;;;;;;22.75;13.43;;;;;;;;;;5004208;28;20191;-80
2023/11/23 09:31:29;;;;;;;19.92;13.25;;;;;;;;;;5013017;28;20278;-80
2023/11/23 09:33:55;;;;;;;12.93;10.80;;;;;;;;;;5017473;28;20183;-80
2023/11/23 09:36:21;;;;;;;24.43;11.37;;;;;;;;;;5009346;28;20312;-80
2023/11/23 09:38:49;;;;;;;19.10;13.43;;;;;;;;;;5012166;28;20441;-81
2023/11/23 09:41:19;;;;;;;16.60;12.68;;;;;;;;;;5006146;28;20437;-80
2023/11/23 09:43:48;;;;;;;18.98;13.20;;;;;;;;;;5018109;28;20171;-80
2023/11/23 09:46:16;;;;;;;20.40;12.98;;;;;;;;;;5014394;28;20182;-81
2023/11/23 09:48:45;;;;;;;13.43;11.18;;;;;;;;;;5017495;28;20178;-80
2023/11/23 09:51:11;;;;;;;22.00;11.52;;;;;;;;;;5017782;28;20175;-81
2023/11/23 09:53:37;;;;;;;13.52;10.80;;;;;;;;;;5010209;28;20198;-80
2023/11/23 09:56:06;;;;;;;13.60;9.75;;;;;;;;;;5018045;28;20209;-81
2023/11/23 09:58:33;;;;;;;15.55;11.38;;;;;;;;;;5015066;28;20545;-80
2023/11/23 10:01:01;;;;;;;12.88;10.40;;;;;;;;;;5009889;28;20588;-80
2023/11/23 10:03:28;;;;;;;19.08;11.88;;;;;;;;;;5004957;28;20178;-80
2023/11/23 10:05:54;;;;;;;13.68;11.07;;;;;;;;;;5020520;28;20179;-80
2023/11/23 10:08:20;;;;;;;11.80;10.20;;;;;;;;;;5013288;28;20553;-80
2023/11/23 10:10:46;;;;;;;13.57;12.02;;;;;;;;;;5017300;28;20434;-81
2023/11/23 10:13:12;;;;;;;15.30;10.32;;;;;;;;;;5013123;28;20174;-80
2023/11/23 10:15:38;;;;;;;14.20;9.83;;;;;;;;;;5011354;28;20604;-80
2023/11/23 10:18:04;;;;;;;14.00;10.32;;;;;;;;;;5015397;28;20397;-80
2023/11/23 10:20:31;;;;;;;14.73;10.93;;;;;;;;;;5013984;28;20202;-80
2023/11/23 10:22:57;;;;;;;15.77;10.52;;;;;;;;;;5009554;28;20477;-80
2023/11/23 10:25:34;;;;;;;11.13;8.27;;;;;;;;;;5004127;28;20672;-81
2023/11/23 10:28:01;;;;;;;12.48;8.90;;;;;;;;;;5002990;28;20694;-81
2023/11/23 10:30:27;;;;;;;13.85;8.95;;;;;;;;;;5011899;28;20531;-81
2023/11/23 10:32:54;;;;;;;13.23;8.90;;;;;;;;;;5008957;28;20185;-80
2023/11/23 10:35:20;;;;;;;8.55;7.13;;;;;;;;;;5023317;28;20199;-82
2023/11/23 10:37:48;;;;;;;11.77;9.07;;;;;;;;;;5013358;28;20662;-81
2023/11/23 10:40:14;;;;;;;21.30;9.70;;;;;;;;;;5005713;28;20203;-80
2023/11/23 10:42:40;;;;;;;13.40;8.63;;;;;;;;;;5010853;28;20198;-80
2023/11/23 10:45:06;;;;;;;13.27;8.80;;;;;;;;;;5009715;28;20990;-81
2023/11/23 10:47:34;;;;;;;10.23;7.78;;;;;;;;;;5010282;28;20192;-80
2023/11/23 10:50:01;;;;;;;10.10;7.40;;;;;;;;;;5015794;28;20183;-80
2023/11/23 10:52:28;;;;;;;15.23;7.80;;;;;;;;;;5009462;28;20236;-81
2023/11/23 10:54:54;;;;;;;10.10;8.27;;;;;;;;;;5012217;28;20632;-80
2023/11/23 10:57:20;;;;;;;9.18;7.68;;;;;;;;;;5006921;28;20509;-80
2023/11/23 10:59:47;;;;;;;9.38;7.40;;;;;;;;;;5008773;28;20580;-80
2023/11/23 11:02:13;;;;;;;10.27;7.50;;;;;;;;;;5005177;28;20561;-80
2023/11/23 11:04:40;;;;;;;7.82;6.80;;;;;;;;;;5011567;28;20195;-80
2023/11/23 11:07:08;;;;;;;8.73;6.50;;;;;;;;;;5011754;28;20190;-80
2023/11/23 11:09:35;;;;;;;9.60;7.60;;;;;;;;;;5012578;28;20186;-81
2023/11/23 11:12:03;;;;;;;8.07;7.20;;;;;;;;;;5019224;28;20179;-80
2023/11/23 11:14:36;;;;;;;11.40;7.95;;;;;;;;;;5004956;28;20274;-80
2023/11/23 11:17:03;;;;;;;13.93;8.40;;;;;;;;;;5013434;28;20182;-80
2023/11/23 11:19:29;;;;;;;12.68;7.25;;;;;;;;;;5018451;28;20555;-80
2023/11/23 11:22:02;;;;;;;11.03;6.90;;;;;;;;;;5002855;28;20235;-80
2023/11/23 11:24:28;;;;;;;11.18;7.57;;;;;;;;;;5008222;28;20438;-81
2023/11/23 11:27:03;;;;;;;9.20;6.63;;;;;;;;;;5011419;28;20238;-80
2023/11/23 11:29:33;;;;;;;8.82;6.28;;;;;;;;;;5005767;28;20469;-80
2023/11/23 11:32:03;;;;;;;10.20;7.53;;;;;;;;;;5015002;28;20639;-81
2023/11/23 11:34:32;;;;;;;9.52;6.75;;;;;;;;;;5020506;28;20187;-80
2023/11/23 11:36:59;;;;;;;9.40;6.60;;;;;;;;;;5013487;28;20321;-80
2023/11/23 11:39:32;;;;;;;9.32;7.55;;;;;;;;;;5004011;28;20667;-80
2023/11/23 11:41:59;;;;;;;13.90;7.13;;;;;;;;;;5005212;28;20202;-80
2023/11/23 11:44:33;;;;;;;7.60;6.60;;;;;;;;;;5008917;28;20183;-80
2023/11/23 11:47:00;;;;;;;9.13;7.22;;;;;;;;;;5016275;28;20179;-80
2023/11/23 11:49:26;;;;;;;8.70;6.45;;;;;;;;;;5014185;28;20593;-80
2023/11/23 11:51:52;;;;;;;12.50;7.40;;;;;;;;;;5018409;28;20190;-81
2023/11/23 11:54:22;;;;;;;9.48;6.93;;;;;;;;;;5008570;28;20290;-81
2023/11/23 11:56:52;;;;;;;10.70;7.50;;;;;;;;;;5023894;28;20195;-80
2023/11/23 11:59:20;;;;;;;8.10;6.97;;;;;;;;;;5005850;28;20199;-81
2023/11/23 12:01:47;;;;;;;9.18;7.03;;;;;;;;;;5006815;28;20190;-81
2023/11/23 12:04:16;;;;;;;7.32;6.30;;;;;;;;;;5005136;28;20261;-80
2023/11/23 12:06:44;;;;;;;7.25;6.00;;;;;;;;;;5006983;28;20186;-79
2023/11/23 12:09:23;;;;;;;7.97;6.32;;;;;;;;;;5013015;28;20229;-81
2023/11/23 12:12:05;;;;;;;11.82;6.60;;;;;;;;;;5022718;28;20191;-81
2023/11/23 12:14:32;;;;;;;7.88;5.80;;;;;;;;;;5011789;28;20186;-80
2023/11/23 12:17:07;;;;;;;5.85;5.25;;;;;;;;;;5005569;28;20507;-80
2023/11/23 12:19:33;;;;;;;7.78;6.20;;;;;;;;;;5006332;28;20208;-80
2023/11/23 12:21:59;;;;;;;9.90;6.70;;;;;;;;;;5009295;28;20662;-81
2023/11/23 12:24:30;;;;;;;9.40;6.47;;;;;;;;;;5008745;28;20427;-80
2023/11/23 12:26:56;;;;;;;7.25;6.20;;;;;;;;;;5009973;28;20481;-80
2023/11/23 12:29:23;;;;;;;13.25;6.85;;;;;;;;;;5011349;28;20182;-80
2023/11/23 12:31:52;;;;;;;9.25;6.25;;;;;;;;;;5012293;28;20186;-79
2023/11/23 12:34:23;;;;;;;7.18;5.68;;;;;;;;;;5009968;28;20179;-79
2023/11/23 12:36:49;;;;;;;9.18;6.05;;;;;;;;;;5011628;28;20202;-80
2023/11/23 12:39:15;;;;;;;10.20;7.25;;;;;;;;;;5004693;28;20714;-80
2023/11/23 12:41:41;;;;;;;9.38;5.65;;;;;;;;;;5013837;28;20720;-80
2023/11/23 12:44:09;;;;;;;7.00;6.05;;;;;;;;;;5010745;28;20624;-79
2023/11/23 12:46:35;;;;;;;7.07;6.05;;;;;;;;;;5013851;28;20186;-81
2023/11/23 12:49:03;;;;;;;6.88;5.15;;;;;;;;;;5004955;28;20179;-79
2023/11/23 12:51:29;;;;;;;8.15;7.32;;;;;;;;;;5016517;28;20175;-80
2023/11/23 12:53:55;;;;;;;8.83;6.90;;;;;;;;;;5008980;28;20535;-79
2023/11/23 12:56:21;;;;;;;7.93;6.40;;;;;;;;;;5017868;28;20445;-79
2023/11/23 12:58:48;;;;;;;7.70;5.75;;;;;;;;;;5017450;28;20444;-80
2023/11/23 13:01:14;;;;;;;12.43;5.22;;;;;;;;;;5013180;28;20194;-79
2023/11/23 13:03:40;;;;;;;15.57;13.98;;;;;;;;;;5007457;28;20207;-80
2023/11/23 13:06:06;;;;;;;14.93;7.35;;;;;;;;;;5025036;28;20198;-80
2023/11/23 13:08:33;;;;;;;12.02;6.50;;;;;;;;;;5014818;28;20189;-80
2023/11/23 13:10:59;;;;;;;8.45;5.72;;;;;;;;;;5009859;28;20175;-79
2023/11/23 13:13:25;;;;;;;5.00;4.53;;;;;;;;;;5012000;28;20571;-79
2023/11/23 13:15:51;;;;;;;8.30;7.20;;;;;;;;;;5012315;28;20179;-79
2023/11/23 13:18:16;;;;;;;8.23;7.07;;;;;;;;;;5013333;28;20516;-79
2023/11/23 13:20:42;;;;;;;9.97;7.00;;;;;;;;;;5008735;28;20968;-79
2023/11/23 13:23:09;;;;;;;6.25;4.85;;;;;;;;;;5007038;28;20573;-80
2023/11/23 13:25:35;;;;;;;9.98;6.78;;;;;;;;;;5013165;28;20183;-80
2023/11/23 13:28:02;;;;;;;6.63;5.00;;;;;;;;;;5014514;28;20316;-79
2023/11/23 13:30:28;;;;;;;6.03;4.45;;;;;;;;;;5007304;28;20438;-80
2023/11/23 13:32:57;;;;;;;5.10;4.70;;;;;;;;;;5012566;28;20694;-80
2023/11/23 13:35:23;;;;;;;3.60;3.30;;;;;;;;;;5019683;28;20513;-83
2023/11/23 13:37:50;;;;;;;5.15;4.65;;;;;;;;;;5013621;28;20179;-80
2023/11/23 13:40:16;;;;;;;6.47;4.40;;;;;;;;;;5010569;28;20720;-79
2023/11/23 13:42:42;;;;;;;5.07;4.07;;;;;;;;;;5016664;28;20241;-79
2023/11/23 13:45:09;;;;;;;6.88;4.22;;;;;;;;;;5009784;28;20234;-79
2023/11/23 13:47:35;;;;;;;6.18;4.03;;;;;;;;;;5016894;28;20265;-79
2023/11/23 13:50:07;;;;;;;7.00;4.07;;;;;;;;;;5009809;28;20586;-79
2023/11/23 13:52:34;;;;;;;5.60;4.13;;;;;;;;;;5018789;28;20527;-80
2023/11/23 13:54:59;;;;;;;5.75;3.50;;;;;;;;;;5013113;28;20187;-80
2023/11/23 13:57:25;;;;;;;7.47;6.00;;;;;;;;;;5014051;28;20198;-79
2023/11/23 13:59:51;;;;;;;4.47;3.10;;;;;;;;;;5015092;28;20469;-79
2023/11/23 14:02:19;;;;;;;4.93;3.70;;;;;;;;;;5014779;28;20462;-80
2023/11/23 14:04:45;;;;;;;11.23;4.45;;;;;;;;;;5021820;28;20463;-79
2023/11/23 14:07:11;;;;;;;6.77;4.20;;;;;;;;;;5014813;28;20630;-79
2023/11/23 14:09:38;;;;;;;5.00;3.60;;;;;;;;;;5013253;28;20427;-80
2023/11/23 14:12:04;;;;;;;6.78;4.15;;;;;;;;;;5016235;28;20184;-80
2023/11/23 14:14:30;;;;;;;6.93;3.85;;;;;;;;;;5005387;28;20721;-80
2023/11/23 14:16:56;;;;;;;7.27;4.00;;;;;;;;;;5018048;28;20265;-79
2023/11/23 14:19:22;;;;;;;12.73;3.60;;;;;;;;;;5014820;28;20476;-80
2023/11/23 14:21:49;;;;;;;6.53;4.10;;;;;;;;;;5012884;28;20876;-80